sensor_id;sensor_type;location;lat;lon;timestamp;P1;durP1;ratioP1;P2;durP2;ratioP2
19306;SDS011;9788;48.194;16.318;2023-12-14T00:00:09;21.13;;;14.63;;
19306;SDS011;9788;48.194;16.318;2023-12-14T00:02:38;23.38;;;15.13;;
19306;SDS011;9788;48.194;16.318;2023-12-14T00:05:06;24.52;;;14.35;;
19306;SDS011;9788;48.194;16.318;2023-12-14T00:07:35;22.33;;;14.93;;
19306;SDS011;9788;48.194;16.318;2023-12-14T00:10:04;24.88;;;14.30;;
19306;SDS011;9788;48.194;16.318;2023-12-14T00:12:34;25.25;;;14.32;;
19306;SDS011;9788;48.194;16.318;2023-12-14T00:15:06;26.83;;;14.82;;
19306;SDS011;9788;48.194;16.318;2023-12-14T00:17:36;25.60;;;15.55;;
19306;SDS011;9788;48.194;16.318;2023-12-14T00:20:05;25.15;;;16.25;;
19306;SDS011;9788;48.194;16.318;2023-12-14T00:22:37;32.92;;;22.10;;
19306;SDS011;9788;48.194;16.318;2023-12-14T00:25:07;27.70;;;17.42;;
19306;SDS011;9788;48.194;16.318;2023-12-14T00:27:39;23.52;;;15.40;;
19306;SDS011;9788;48.194;16.318;2023-12-14T00:30:08;24.90;;;15.27;;
19306;SDS011;9788;48.194;16.318;2023-12-14T00:32:37;23.42;;;15.30;;
19306;SDS011;9788;48.194;16.318;2023-12-14T00:35:05;25.02;;;15.70;;
19306;SDS011;9788;48.194;16.318;2023-12-14T00:37:34;25.45;;;15.07;;
19306;SDS011;9788;48.194;16.318;2023-12-14T00:40:05;25.77;;;16.05;;
19306;SDS011;9788;48.194;16.318;2023-12-14T00:42:35;21.17;;;14.13;;
19306;SDS011;9788;48.194;16.318;2023-12-14T00:45:05;20.23;;;13.98;;
19306;SDS011;9788;48.194;16.318;2023-12-14T00:47:34;23.58;;;15.45;;
19306;SDS011;9788;48.194;16.318;2023-12-14T00:50:03;23.17;;;15.68;;
19306;SDS011;9788;48.194;16.318;2023-12-14T00:52:32;23.75;;;16.00;;
19306;SDS011;9788;48.194;16.318;2023-12-14T00:55:01;24.65;;;15.32;;
19306;SDS011;9788;48.194;16.318;2023-12-14T00:57:30;24.80;;;16.00;;
19306;SDS011;9788;48.194;16.318;2023-12-14T00:59:58;27.00;;;15.55;;
19306;SDS011;9788;48.194;16.318;2023-12-14T01:02:31;25.65;;;16.13;;
19306;SDS011;9788;48.194;16.318;2023-12-14T01:05:00;26.90;;;16.67;;
19306;SDS011;9788;48.194;16.318;2023-12-14T01:07:29;25.77;;;16.42;;
19306;SDS011;9788;48.194;16.318;2023-12-14T01:09:58;25.48;;;15.75;;
19306;SDS011;9788;48.194;16.318;2023-12-14T01:12:30;26.70;;;16.13;;
19306;SDS011;9788;48.194;16.318;2023-12-14T01:15:00;25.05;;;16.38;;
19306;SDS011;9788;48.194;16.318;2023-12-14T01:17:28;30.45;;;18.63;;
19306;SDS011;9788;48.194;16.318;2023-12-14T01:19:58;32.20;;;19.85;;
19306;SDS011;9788;48.194;16.318;2023-12-14T01:22:28;35.05;;;20.55;;
19306;SDS011;9788;48.194;16.318;2023-12-14T01:24:57;40.13;;;22.35;;
19306;SDS011;9788;48.194;16.318;2023-12-14T01:27:26;38.95;;;21.85;;
19306;SDS011;9788;48.194;16.318;2023-12-14T01:29:54;39.08;;;23.33;;
19306;SDS011;9788;48.194;16.318;2023-12-14T01:32:25;40.13;;;22.83;;
19306;SDS011;9788;48.194;16.318;2023-12-14T01:34:54;40.35;;;21.80;;
19306;SDS011;9788;48.194;16.318;2023-12-14T01:37:24;34.45;;;21.17;;
19306;SDS011;9788;48.194;16.318;2023-12-14T01:39:52;39.72;;;22.92;;
19306;SDS011;9788;48.194;16.318;2023-12-14T01:42:21;37.97;;;21.92;;
19306;SDS011;9788;48.194;16.318;2023-12-14T01:44:50;38.75;;;21.90;;
19306;SDS011;9788;48.194;16.318;2023-12-14T01:47:19;39.10;;;22.05;;
19306;SDS011;9788;48.194;16.318;2023-12-14T01:49:47;40.63;;;22.45;;
19306;SDS011;9788;48.194;16.318;2023-12-14T01:52:16;39.63;;;22.35;;
19306;SDS011;9788;48.194;16.318;2023-12-14T01:54:46;37.90;;;22.65;;
19306;SDS011;9788;48.194;16.318;2023-12-14T01:57:15;37.50;;;23.02;;
19306;SDS011;9788;48.194;16.318;2023-12-14T01:59:43;38.97;;;22.63;;
19306;SDS011;9788;48.194;16.318;2023-12-14T02:02:12;37.83;;;22.95;;
19306;SDS011;9788;48.194;16.318;2023-12-14T02:04:40;41.78;;;23.27;;
19306;SDS011;9788;48.194;16.318;2023-12-14T02:07:09;36.50;;;22.40;;
19306;SDS011;9788;48.194;16.318;2023-12-14T02:09:37;39.72;;;22.90;;
19306;SDS011;9788;48.194;16.318;2023-12-14T02:12:07;38.72;;;22.80;;
19306;SDS011;9788;48.194;16.318;2023-12-14T02:14:39;38.72;;;23.13;;
19306;SDS011;9788;48.194;16.318;2023-12-14T02:17:07;42.13;;;24.05;;
19306;SDS011;9788;48.194;16.318;2023-12-14T02:19:36;39.90;;;23.98;;
19306;SDS011;9788;48.194;16.318;2023-12-14T02:22:05;42.03;;;23.65;;
19306;SDS011;9788;48.194;16.318;2023-12-14T02:24:34;37.33;;;22.38;;
19306;SDS011;9788;48.194;16.318;2023-12-14T02:27:03;42.45;;;23.33;;
19306;SDS011;9788;48.194;16.318;2023-12-14T02:29:33;40.90;;;22.70;;
19306;SDS011;9788;48.194;16.318;2023-12-14T02:32:04;47.20;;;27.58;;
19306;SDS011;9788;48.194;16.318;2023-12-14T02:34:33;45.40;;;25.20;;
19306;SDS011;9788;48.194;16.318;2023-12-14T02:37:03;43.38;;;24.85;;
19306;SDS011;9788;48.194;16.318;2023-12-14T02:39:32;36.38;;;22.35;;
19306;SDS011;9788;48.194;16.318;2023-12-14T02:42:03;35.97;;;21.35;;
19306;SDS011;9788;48.194;16.318;2023-12-14T02:44:38;36.78;;;22.15;;
19306;SDS011;9788;48.194;16.318;2023-12-14T02:47:06;34.90;;;20.25;;
19306;SDS011;9788;48.194;16.318;2023-12-14T02:49:34;37.25;;;21.83;;
19306;SDS011;9788;48.194;16.318;2023-12-14T02:52:03;40.63;;;23.15;;
19306;SDS011;9788;48.194;16.318;2023-12-14T02:54:32;37.47;;;21.80;;
19306;SDS011;9788;48.194;16.318;2023-12-14T02:57:00;34.60;;;21.45;;
19306;SDS011;9788;48.194;16.318;2023-12-14T02:59:30;36.35;;;21.35;;
19306;SDS011;9788;48.194;16.318;2023-12-14T03:01:58;36.65;;;21.63;;
19306;SDS011;9788;48.194;16.318;2023-12-14T03:04:27;36.75;;;21.00;;
19306;SDS011;9788;48.194;16.318;2023-12-14T03:07:00;37.30;;;21.73;;
19306;SDS011;9788;48.194;16.318;2023-12-14T03:09:29;39.30;;;22.08;;
19306;SDS011;9788;48.194;16.318;2023-12-14T03:12:01;36.28;;;21.38;;
19306;SDS011;9788;48.194;16.318;2023-12-14T03:14:32;35.53;;;20.67;;
19306;SDS011;9788;48.194;16.318;2023-12-14T03:17:01;35.83;;;20.45;;
19306;SDS011;9788;48.194;16.318;2023-12-14T03:19:29;33.90;;;20.75;;
19306;SDS011;9788;48.194;16.318;2023-12-14T03:21:58;32.50;;;19.85;;
19306;SDS011;9788;48.194;16.318;2023-12-14T03:24:26;32.00;;;19.73;;
19306;SDS011;9788;48.194;16.318;2023-12-14T03:26:55;32.72;;;19.45;;
19306;SDS011;9788;48.194;16.318;2023-12-14T03:29:24;33.75;;;20.25;;
19306;SDS011;9788;48.194;16.318;2023-12-14T03:31:53;35.15;;;19.70;;
19306;SDS011;9788;48.194;16.318;2023-12-14T03:34:21;32.38;;;20.23;;
19306;SDS011;9788;48.194;16.318;2023-12-14T03:36:50;30.85;;;20.15;;
19306;SDS011;9788;48.194;16.318;2023-12-14T03:39:19;27.95;;;18.17;;
19306;SDS011;9788;48.194;16.318;2023-12-14T03:41:47;29.70;;;18.25;;
19306;SDS011;9788;48.194;16.318;2023-12-14T03:44:15;31.70;;;19.45;;
19306;SDS011;9788;48.194;16.318;2023-12-14T03:46:51;28.70;;;18.25;;
19306;SDS011;9788;48.194;16.318;2023-12-14T03:49:20;30.17;;;18.45;;
19306;SDS011;9788;48.194;16.318;2023-12-14T03:51:54;30.58;;;18.63;;
19306;SDS011;9788;48.194;16.318;2023-12-14T03:54:23;29.77;;;17.58;;
19306;SDS011;9788;48.194;16.318;2023-12-14T03:56:51;27.00;;;17.50;;
19306;SDS011;9788;48.194;16.318;2023-12-14T03:59:22;28.25;;;18.30;;
19306;SDS011;9788;48.194;16.318;2023-12-14T04:01:54;29.77;;;16.65;;
19306;SDS011;9788;48.194;16.318;2023-12-14T04:04:22;26.63;;;17.63;;
19306;SDS011;9788;48.194;16.318;2023-12-14T04:06:51;26.17;;;16.30;;
19306;SDS011;9788;48.194;16.318;2023-12-14T04:09:20;28.52;;;15.70;;
19306;SDS011;9788;48.194;16.318;2023-12-14T04:11:50;25.73;;;15.57;;
19306;SDS011;9788;48.194;16.318;2023-12-14T04:14:18;23.00;;;14.85;;
19306;SDS011;9788;48.194;16.318;2023-12-14T04:16:47;21.33;;;13.73;;
19306;SDS011;9788;48.194;16.318;2023-12-14T04:19:16;17.60;;;12.32;;
19306;SDS011;9788;48.194;16.318;2023-12-14T04:21:46;17.75;;;12.18;;
19306;SDS011;9788;48.194;16.318;2023-12-14T04:24:14;23.35;;;13.85;;
19306;SDS011;9788;48.194;16.318;2023-12-14T04:26:45;18.77;;;12.48;;
19306;SDS011;9788;48.194;16.318;2023-12-14T04:29:13;18.55;;;12.55;;
19306;SDS011;9788;48.194;16.318;2023-12-14T04:31:41;21.92;;;13.20;;
19306;SDS011;9788;48.194;16.318;2023-12-14T04:34:09;15.73;;;11.18;;
19306;SDS011;9788;48.194;16.318;2023-12-14T04:36:43;17.08;;;12.68;;
19306;SDS011;9788;48.194;16.318;2023-12-14T04:39:12;19.95;;;13.00;;
19306;SDS011;9788;48.194;16.318;2023-12-14T04:41:43;18.50;;;13.07;;
19306;SDS011;9788;48.194;16.318;2023-12-14T04:44:11;17.80;;;12.90;;
19306;SDS011;9788;48.194;16.318;2023-12-14T04:46:40;17.98;;;12.13;;
19306;SDS011;9788;48.194;16.318;2023-12-14T04:49:09;17.00;;;11.68;;
19306;SDS011;9788;48.194;16.318;2023-12-14T04:51:36;18.05;;;11.13;;
19306;SDS011;9788;48.194;16.318;2023-12-14T04:54:05;16.85;;;11.55;;
19306;SDS011;9788;48.194;16.318;2023-12-14T04:56:34;17.20;;;12.27;;
19306;SDS011;9788;48.194;16.318;2023-12-14T04:59:03;16.23;;;11.45;;
19306;SDS011;9788;48.194;16.318;2023-12-14T05:01:32;17.65;;;11.30;;
19306;SDS011;9788;48.194;16.318;2023-12-14T05:04:00;17.60;;;12.25;;
19306;SDS011;9788;48.194;16.318;2023-12-14T05:06:29;16.65;;;11.48;;
19306;SDS011;9788;48.194;16.318;2023-12-14T05:08:59;17.48;;;11.73;;
19306;SDS011;9788;48.194;16.318;2023-12-14T05:11:32;15.48;;;11.32;;
19306;SDS011;9788;48.194;16.318;2023-12-14T05:14:00;15.90;;;10.02;;
19306;SDS011;9788;48.194;16.318;2023-12-14T05:16:28;13.15;;;9.82;;
19306;SDS011;9788;48.194;16.318;2023-12-14T05:19:00;13.45;;;10.13;;
19306;SDS011;9788;48.194;16.318;2023-12-14T05:21:28;12.27;;;9.68;;
19306;SDS011;9788;48.194;16.318;2023-12-14T05:23:58;13.50;;;9.73;;
19306;SDS011;9788;48.194;16.318;2023-12-14T05:26:27;14.48;;;10.02;;
19306;SDS011;9788;48.194;16.318;2023-12-14T05:28:56;11.38;;;9.05;;
19306;SDS011;9788;48.194;16.318;2023-12-14T05:31:25;10.60;;;8.73;;
19306;SDS011;9788;48.194;16.318;2023-12-14T05:33:53;10.90;;;9.00;;
19306;SDS011;9788;48.194;16.318;2023-12-14T05:36:24;11.57;;;8.73;;
19306;SDS011;9788;48.194;16.318;2023-12-14T05:38:53;11.57;;;9.10;;
19306;SDS011;9788;48.194;16.318;2023-12-14T05:41:21;13.15;;;8.80;;
19306;SDS011;9788;48.194;16.318;2023-12-14T05:43:51;10.38;;;7.78;;
19306;SDS011;9788;48.194;16.318;2023-12-14T05:46:23;9.65;;;7.63;;
19306;SDS011;9788;48.194;16.318;2023-12-14T05:48:52;8.13;;;7.03;;
19306;SDS011;9788;48.194;16.318;2023-12-14T05:51:27;8.15;;;6.80;;
19306;SDS011;9788;48.194;16.318;2023-12-14T05:53:56;8.10;;;6.57;;
19306;SDS011;9788;48.194;16.318;2023-12-14T05:56:30;9.73;;;6.40;;
19306;SDS011;9788;48.194;16.318;2023-12-14T05:58:58;6.53;;;5.53;;
19306;SDS011;9788;48.194;16.318;2023-12-14T06:01:28;5.97;;;5.30;;
19306;SDS011;9788;48.194;16.318;2023-12-14T06:03:56;5.53;;;5.03;;
19306;SDS011;9788;48.194;16.318;2023-12-14T06:06:24;5.60;;;4.72;;
19306;SDS011;9788;48.194;16.318;2023-12-14T06:08:53;5.60;;;4.88;;
19306;SDS011;9788;48.194;16.318;2023-12-14T06:11:21;7.43;;;4.80;;
19306;SDS011;9788;48.194;16.318;2023-12-14T06:13:53;5.25;;;4.45;;
19306;SDS011;9788;48.194;16.318;2023-12-14T06:16:29;4.18;;;3.75;;
19306;SDS011;9788;48.194;16.318;2023-12-14T06:19:00;4.63;;;3.72;;
19306;SDS011;9788;48.194;16.318;2023-12-14T06:21:36;3.63;;;3.33;;
19306;SDS011;9788;48.194;16.318;2023-12-14T06:24:06;3.47;;;3.17;;
19306;SDS011;9788;48.194;16.318;2023-12-14T06:26:35;10.40;;;5.68;;
19306;SDS011;9788;48.194;16.318;2023-12-14T06:29:09;24.45;;;11.05;;
19306;SDS011;9788;48.194;16.318;2023-12-14T06:31:40;17.23;;;7.97;;
19306;SDS011;9788;48.194;16.318;2023-12-14T06:34:09;11.68;;;5.85;;
19306;SDS011;9788;48.194;16.318;2023-12-14T06:36:41;13.95;;;7.70;;
19306;SDS011;9788;48.194;16.318;2023-12-14T06:39:09;14.52;;;7.43;;
19306;SDS011;9788;48.194;16.318;2023-12-14T06:41:38;13.35;;;7.65;;
19306;SDS011;9788;48.194;16.318;2023-12-14T06:44:07;7.93;;;5.40;;
19306;SDS011;9788;48.194;16.318;2023-12-14T06:46:51;4.45;;;3.90;;
19306;SDS011;9788;48.194;16.318;2023-12-14T06:49:20;3.72;;;3.03;;
19306;SDS011;9788;48.194;16.318;2023-12-14T06:51:50;3.97;;;2.90;;
19306;SDS011;9788;48.194;16.318;2023-12-14T06:54:19;3.28;;;2.47;;
19306;SDS011;9788;48.194;16.318;2023-12-14T06:56:47;2.50;;;2.30;;
19306;SDS011;9788;48.194;16.318;2023-12-14T06:59:16;2.40;;;2.20;;
19306;SDS011;9788;48.194;16.318;2023-12-14T07:01:45;3.83;;;2.58;;
19306;SDS011;9788;48.194;16.318;2023-12-14T07:04:15;3.17;;;2.22;;
19306;SDS011;9788;48.194;16.318;2023-12-14T07:06:51;4.35;;;2.45;;
19306;SDS011;9788;48.194;16.318;2023-12-14T07:09:21;5.85;;;2.03;;
19306;SDS011;9788;48.194;16.318;2023-12-14T07:11:54;3.65;;;1.50;;
19306;SDS011;9788;48.194;16.318;2023-12-14T07:14:25;2.38;;;1.83;;
19306;SDS011;9788;48.194;16.318;2023-12-14T07:16:53;2.10;;;1.90;;
19306;SDS011;9788;48.194;16.318;2023-12-14T07:19:23;1.67;;;1.58;;
19306;SDS011;9788;48.194;16.318;2023-12-14T07:21:53;2.63;;;2.25;;
19306;SDS011;9788;48.194;16.318;2023-12-14T07:24:27;3.78;;;2.40;;
19306;SDS011;9788;48.194;16.318;2023-12-14T07:27:14;4.95;;;2.60;;
19306;SDS011;9788;48.194;16.318;2023-12-14T07:29:42;2.75;;;1.77;;
19306;SDS011;9788;48.194;16.318;2023-12-14T07:32:10;2.65;;;1.85;;
19306;SDS011;9788;48.194;16.318;2023-12-14T07:34:40;1.50;;;1.40;;
19306;SDS011;9788;48.194;16.318;2023-12-14T07:37:13;2.25;;;1.60;;
19306;SDS011;9788;48.194;16.318;2023-12-14T07:39:44;1.95;;;1.40;;
19306;SDS011;9788;48.194;16.318;2023-12-14T07:42:13;1.48;;;1.23;;
19306;SDS011;9788;48.194;16.318;2023-12-14T07:44:49;1.02;;;1.02;;
19306;SDS011;9788;48.194;16.318;2023-12-14T07:47:26;2.08;;;1.60;;
19306;SDS011;9788;48.194;16.318;2023-12-14T07:49:55;2.30;;;1.90;;
19306;SDS011;9788;48.194;16.318;2023-12-14T07:52:24;1.30;;;1.20;;
19306;SDS011;9788;48.194;16.318;2023-12-14T07:54:53;1.27;;;1.15;;
19306;SDS011;9788;48.194;16.318;2023-12-14T07:57:22;1.30;;;1.20;;
19306;SDS011;9788;48.194;16.318;2023-12-14T07:59:57;1.88;;;1.40;;
19306;SDS011;9788;48.194;16.318;2023-12-14T08:02:29;1.13;;;1.00;;
19306;SDS011;9788;48.194;16.318;2023-12-14T08:04:59;1.55;;;1.38;;
19306;SDS011;9788;48.194;16.318;2023-12-14T08:07:32;1.52;;;1.33;;
19306;SDS011;9788;48.194;16.318;2023-12-14T08:10:00;1.40;;;1.30;;
19306;SDS011;9788;48.194;16.318;2023-12-14T08:12:29;2.65;;;1.90;;
19306;SDS011;9788;48.194;16.318;2023-12-14T08:15:02;2.13;;;1.50;;
19306;SDS011;9788;48.194;16.318;2023-12-14T08:17:31;2.05;;;1.60;;
19306;SDS011;9788;48.194;16.318;2023-12-14T08:20:01;2.47;;;1.55;;
19306;SDS011;9788;48.194;16.318;2023-12-14T08:22:31;1.70;;;1.60;;
19306;SDS011;9788;48.194;16.318;2023-12-14T08:24:59;2.63;;;1.70;;
19306;SDS011;9788;48.194;16.318;2023-12-14T08:27:34;1.80;;;1.70;;
19306;SDS011;9788;48.194;16.318;2023-12-14T08:30:02;5.07;;;1.90;;
19306;SDS011;9788;48.194;16.318;2023-12-14T08:32:32;1.83;;;1.55;;
19306;SDS011;9788;48.194;16.318;2023-12-14T08:35:06;2.88;;;2.00;;
19306;SDS011;9788;48.194;16.318;2023-12-14T08:37:38;2.20;;;1.58;;
19306;SDS011;9788;48.194;16.318;2023-12-14T08:40:06;2.72;;;1.75;;
19306;SDS011;9788;48.194;16.318;2023-12-14T08:42:35;2.00;;;1.90;;
19306;SDS011;9788;48.194;16.318;2023-12-14T08:45:06;2.72;;;1.83;;
19306;SDS011;9788;48.194;16.318;2023-12-14T08:47:37;4.15;;;1.70;;
19306;SDS011;9788;48.194;16.318;2023-12-14T08:50:08;2.92;;;1.90;;
19306;SDS011;9788;48.194;16.318;2023-12-14T08:52:39;1.98;;;1.60;;
19306;SDS011;9788;48.194;16.318;2023-12-14T08:55:09;1.75;;;1.65;;
19306;SDS011;9788;48.194;16.318;2023-12-14T08:57:38;2.03;;;1.83;;
19306;SDS011;9788;48.194;16.318;2023-12-14T09:00:07;3.38;;;1.92;;
19306;SDS011;9788;48.194;16.318;2023-12-14T09:02:37;2.97;;;2.10;;
19306;SDS011;9788;48.194;16.318;2023-12-14T09:05:08;3.90;;;2.13;;
19306;SDS011;9788;48.194;16.318;2023-12-14T09:07:42;1.90;;;1.80;;
19306;SDS011;9788;48.194;16.318;2023-12-14T09:10:10;2.58;;;1.63;;
19306;SDS011;9788;48.194;16.318;2023-12-14T09:12:40;1.70;;;1.60;;
19306;SDS011;9788;48.194;16.318;2023-12-14T09:15:09;2.42;;;1.52;;
19306;SDS011;9788;48.194;16.318;2023-12-14T09:17:37;2.75;;;1.40;;
19306;SDS011;9788;48.194;16.318;2023-12-14T09:20:10;1.63;;;1.52;;
19306;SDS011;9788;48.194;16.318;2023-12-14T09:22:42;1.52;;;1.42;;
19306;SDS011;9788;48.194;16.318;2023-12-14T09:25:11;2.10;;;1.90;;
19306;SDS011;9788;48.194;16.318;2023-12-14T09:27:40;4.78;;;2.65;;
19306;SDS011;9788;48.194;16.318;2023-12-14T09:30:10;2.60;;;2.13;;
19306;SDS011;9788;48.194;16.318;2023-12-14T09:32:42;7.25;;;2.35;;
19306;SDS011;9788;48.194;16.318;2023-12-14T09:35:13;4.80;;;1.80;;
19306;SDS011;9788;48.194;16.318;2023-12-14T09:37:44;2.10;;;1.67;;
19306;SDS011;9788;48.194;16.318;2023-12-14T09:40:13;3.35;;;1.40;;
19306;SDS011;9788;48.194;16.318;2023-12-14T09:42:43;14.48;;;7.80;;
19306;SDS011;9788;48.194;16.318;2023-12-14T09:45:17;2.53;;;1.67;;
19306;SDS011;9788;48.194;16.318;2023-12-14T09:47:48;3.20;;;1.70;;
19306;SDS011;9788;48.194;16.318;2023-12-14T09:50:19;1.95;;;1.60;;
19306;SDS011;9788;48.194;16.318;2023-12-14T09:52:48;3.15;;;2.10;;
19306;SDS011;9788;48.194;16.318;2023-12-14T09:55:21;8.98;;;1.98;;
19306;SDS011;9788;48.194;16.318;2023-12-14T09:57:49;3.10;;;1.98;;
19306;SDS011;9788;48.194;16.318;2023-12-14T10:00:32;4.38;;;2.08;;
19306;SDS011;9788;48.194;16.318;2023-12-14T10:05:53;3.08;;;1.90;;
19306;SDS011;9788;48.194;16.318;2023-12-14T10:08:22;3.40;;;1.80;;
19306;SDS011;9788;48.194;16.318;2023-12-14T10:10:56;5.40;;;2.10;;
19306;SDS011;9788;48.194;16.318;2023-12-14T10:13:38;4.18;;;1.50;;
19306;SDS011;9788;48.194;16.318;2023-12-14T10:16:10;2.65;;;1.63;;
19306;SDS011;9788;48.194;16.318;2023-12-14T10:18:38;4.57;;;1.70;;
19306;SDS011;9788;48.194;16.318;2023-12-14T10:21:08;4.43;;;1.75;;
19306;SDS011;9788;48.194;16.318;2023-12-14T10:23:44;3.17;;;2.10;;
19306;SDS011;9788;48.194;16.318;2023-12-14T10:26:13;4.50;;;2.30;;
19306;SDS011;9788;48.194;16.318;2023-12-14T10:28:45;3.38;;;2.17;;
19306;SDS011;9788;48.194;16.318;2023-12-14T10:31:14;2.20;;;1.75;;
19306;SDS011;9788;48.194;16.318;2023-12-14T10:33:43;2.53;;;1.63;;
19306;SDS011;9788;48.194;16.318;2023-12-14T10:36:14;4.00;;;1.50;;
19306;SDS011;9788;48.194;16.318;2023-12-14T10:38:45;4.57;;;1.45;;
19306;SDS011;9788;48.194;16.318;2023-12-14T10:41:19;3.00;;;1.98;;
19306;SDS011;9788;48.194;16.318;2023-12-14T10:43:53;4.18;;;1.50;;
19306;SDS011;9788;48.194;16.318;2023-12-14T10:46:43;3.25;;;1.45;;
19306;SDS011;9788;48.194;16.318;2023-12-14T10:49:15;2.80;;;1.55;;
19306;SDS011;9788;48.194;16.318;2023-12-14T10:51:48;7.22;;;2.20;;
19306;SDS011;9788;48.194;16.318;2023-12-14T10:54:16;2.88;;;1.55;;
19306;SDS011;9788;48.194;16.318;2023-12-14T10:56:45;2.33;;;1.40;;
19306;SDS011;9788;48.194;16.318;2023-12-14T10:59:15;2.15;;;1.70;;
19306;SDS011;9788;48.194;16.318;2023-12-14T11:01:45;4.05;;;1.73;;
19306;SDS011;9788;48.194;16.318;2023-12-14T11:04:21;1.70;;;1.50;;
19306;SDS011;9788;48.194;16.318;2023-12-14T11:06:51;4.88;;;2.40;;
19306;SDS011;9788;48.194;16.318;2023-12-14T11:09:28;1.67;;;1.58;;
19306;SDS011;9788;48.194;16.318;2023-12-14T11:12:05;1.60;;;1.40;;
19306;SDS011;9788;48.194;16.318;2023-12-14T11:14:35;1.85;;;1.50;;
19306;SDS011;9788;48.194;16.318;2023-12-14T11:17:05;7.82;;;2.03;;
19306;SDS011;9788;48.194;16.318;2023-12-14T11:19:34;3.97;;;2.60;;
19306;SDS011;9788;48.194;16.318;2023-12-14T11:22:23;11.68;;;3.22;;
19306;SDS011;9788;48.194;16.318;2023-12-14T11:24:54;9.55;;;6.38;;
19306;SDS011;9788;48.194;16.318;2023-12-14T11:27:26;2.95;;;1.92;;
19306;SDS011;9788;48.194;16.318;2023-12-14T11:29:57;5.50;;;2.40;;
19306;SDS011;9788;48.194;16.318;2023-12-14T11:32:26;11.57;;;3.72;;
19306;SDS011;9788;48.194;16.318;2023-12-14T11:34:55;3.08;;;2.30;;
19306;SDS011;9788;48.194;16.318;2023-12-14T11:37:25;3.00;;;2.70;;
19306;SDS011;9788;48.194;16.318;2023-12-14T11:39:55;2.50;;;2.30;;
19306;SDS011;9788;48.194;16.318;2023-12-14T11:42:23;4.05;;;2.72;;
19306;SDS011;9788;48.194;16.318;2023-12-14T11:44:52;6.22;;;2.88;;
19306;SDS011;9788;48.194;16.318;2023-12-14T11:47:20;3.60;;;2.42;;
19306;SDS011;9788;48.194;16.318;2023-12-14T11:49:51;5.38;;;2.88;;
19306;SDS011;9788;48.194;16.318;2023-12-14T11:52:21;4.65;;;3.05;;
19306;SDS011;9788;48.194;16.318;2023-12-14T11:54:51;3.60;;;3.28;;
19306;SDS011;9788;48.194;16.318;2023-12-14T11:57:21;4.13;;;3.25;;
19306;SDS011;9788;48.194;16.318;2023-12-14T11:59:50;6.05;;;3.33;;
19306;SDS011;9788;48.194;16.318;2023-12-14T12:02:23;4.70;;;3.55;;
19306;SDS011;9788;48.194;16.318;2023-12-14T12:04:56;7.20;;;3.55;;
19306;SDS011;9788;48.194;16.318;2023-12-14T12:07:29;6.70;;;3.42;;
19306;SDS011;9788;48.194;16.318;2023-12-14T12:10:00;4.88;;;3.63;;
19306;SDS011;9788;48.194;16.318;2023-12-14T12:12:30;6.13;;;3.90;;
19306;SDS011;9788;48.194;16.318;2023-12-14T12:15:05;5.15;;;3.25;;
19306;SDS011;9788;48.194;16.318;2023-12-14T12:17:34;6.82;;;4.03;;
19306;SDS011;9788;48.194;16.318;2023-12-14T12:20:07;4.25;;;3.72;;
19306;SDS011;9788;48.194;16.318;2023-12-14T12:22:36;4.15;;;3.50;;
19306;SDS011;9788;48.194;16.318;2023-12-14T12:25:10;4.60;;;3.35;;
19306;SDS011;9788;48.194;16.318;2023-12-14T12:27:42;6.63;;;4.30;;
19306;SDS011;9788;48.194;16.318;2023-12-14T12:30:11;4.07;;;3.55;;
19306;SDS011;9788;48.194;16.318;2023-12-14T12:32:41;4.68;;;3.80;;
19306;SDS011;9788;48.194;16.318;2023-12-14T12:35:16;4.25;;;3.38;;
19306;SDS011;9788;48.194;16.318;2023-12-14T12:37:47;4.60;;;3.22;;
19306;SDS011;9788;48.194;16.318;2023-12-14T12:40:22;8.88;;;3.70;;
19306;SDS011;9788;48.194;16.318;2023-12-14T12:42:52;13.60;;;6.38;;
19306;SDS011;9788;48.194;16.318;2023-12-14T12:45:31;4.18;;;3.40;;
19306;SDS011;9788;48.194;16.318;2023-12-14T12:48:04;3.25;;;2.95;;
19306;SDS011;9788;48.194;16.318;2023-12-14T12:50:34;4.13;;;3.00;;
19306;SDS011;9788;48.194;16.318;2023-12-14T12:53:03;3.30;;;2.80;;
19306;SDS011;9788;48.194;16.318;2023-12-14T12:55:33;7.50;;;3.45;;
19306;SDS011;9788;48.194;16.318;2023-12-14T12:58:01;5.93;;;3.22;;
19306;SDS011;9788;48.194;16.318;2023-12-14T13:00:33;8.60;;;3.67;;
19306;SDS011;9788;48.194;16.318;2023-12-14T13:03:04;6.40;;;3.30;;
19306;SDS011;9788;48.194;16.318;2023-12-14T13:05:32;8.68;;;3.00;;
19306;SDS011;9788;48.194;16.318;2023-12-14T13:08:02;4.07;;;2.97;;
19306;SDS011;9788;48.194;16.318;2023-12-14T13:10:30;5.38;;;2.50;;
19306;SDS011;9788;48.194;16.318;2023-12-14T13:13:00;18.20;;;3.33;;
19306;SDS011;9788;48.194;16.318;2023-12-14T13:15:38;5.22;;;2.95;;
19306;SDS011;9788;48.194;16.318;2023-12-14T13:18:06;6.18;;;3.20;;
19306;SDS011;9788;48.194;16.318;2023-12-14T13:20:36;4.03;;;2.83;;
19306;SDS011;9788;48.194;16.318;2023-12-14T13:23:06;2.83;;;2.60;;
19306;SDS011;9788;48.194;16.318;2023-12-14T13:25:37;4.40;;;2.88;;
19306;SDS011;9788;48.194;16.318;2023-12-14T13:28:05;3.13;;;2.45;;
19306;SDS011;9788;48.194;16.318;2023-12-14T13:30:34;4.13;;;3.05;;
19306;SDS011;9788;48.194;16.318;2023-12-14T13:33:05;4.55;;;2.55;;
19306;SDS011;9788;48.194;16.318;2023-12-14T13:35:36;3.70;;;2.42;;
19306;SDS011;9788;48.194;16.318;2023-12-14T13:38:04;3.72;;;2.80;;
19306;SDS011;9788;48.194;16.318;2023-12-14T13:40:40;3.15;;;2.30;;
19306;SDS011;9788;48.194;16.318;2023-12-14T13:43:30;7.63;;;2.70;;
19306;SDS011;9788;48.194;16.318;2023-12-14T13:46:04;3.08;;;2.65;;
19306;SDS011;9788;48.194;16.318;2023-12-14T13:48:46;7.32;;;4.85;;
19306;SDS011;9788;48.194;16.318;2023-12-14T13:51:16;6.68;;;3.60;;
19306;SDS011;9788;48.194;16.318;2023-12-14T13:53:47;4.00;;;2.67;;
19306;SDS011;9788;48.194;16.318;2023-12-14T13:56:24;5.93;;;3.75;;
19306;SDS011;9788;48.194;16.318;2023-12-14T13:58:53;5.20;;;2.50;;
19306;SDS011;9788;48.194;16.318;2023-12-14T14:01:22;4.28;;;2.42;;
19306;SDS011;9788;48.194;16.318;2023-12-14T14:03:51;4.82;;;2.30;;
19306;SDS011;9788;48.194;16.318;2023-12-14T14:06:25;5.82;;;2.45;;
19306;SDS011;9788;48.194;16.318;2023-12-14T14:08:53;4.00;;;2.60;;
19306;SDS011;9788;48.194;16.318;2023-12-14T14:11:24;3.42;;;2.60;;
19306;SDS011;9788;48.194;16.318;2023-12-14T14:13:53;4.00;;;2.28;;
19306;SDS011;9788;48.194;16.318;2023-12-14T14:16:23;3.55;;;2.40;;
19306;SDS011;9788;48.194;16.318;2023-12-14T14:19:04;5.35;;;2.78;;
19306;SDS011;9788;48.194;16.318;2023-12-14T14:21:35;3.60;;;2.53;;
19306;SDS011;9788;48.194;16.318;2023-12-14T14:24:04;3.55;;;2.90;;
19306;SDS011;9788;48.194;16.318;2023-12-14T14:26:35;5.50;;;2.80;;
19306;SDS011;9788;48.194;16.318;2023-12-14T14:29:05;3.65;;;2.90;;
19306;SDS011;9788;48.194;16.318;2023-12-14T14:31:38;4.78;;;3.30;;
19306;SDS011;9788;48.194;16.318;2023-12-14T14:34:10;5.32;;;3.22;;
19306;SDS011;9788;48.194;16.318;2023-12-14T14:36:50;3.58;;;3.10;;
19306;SDS011;9788;48.194;16.318;2023-12-14T14:39:37;6.03;;;3.35;;
19306;SDS011;9788;48.194;16.318;2023-12-14T14:44:56;4.45;;;3.65;;
19306;SDS011;9788;48.194;16.318;2023-12-14T14:47:27;5.97;;;3.80;;
19306;SDS011;9788;48.194;16.318;2023-12-14T14:49:57;7.68;;;4.40;;
19306;SDS011;9788;48.194;16.318;2023-12-14T14:52:30;5.80;;;4.40;;
19306;SDS011;9788;48.194;16.318;2023-12-14T14:54:59;3.97;;;3.50;;
19306;SDS011;9788;48.194;16.318;2023-12-14T14:57:33;4.60;;;3.75;;
19306;SDS011;9788;48.194;16.318;2023-12-14T15:00:02;5.25;;;3.63;;
19306;SDS011;9788;48.194;16.318;2023-12-14T15:02:34;5.57;;;3.78;;